sensor_id;sensor_type;location;lat;lon;timestamp;P1;durP1;ratioP1;P2;durP2;ratioP2
10452;SDS011;5274;51.992;8.518;2022-12-26T00:00:10;60.63;;;25.95;;
10452;SDS011;5274;51.992;8.518;2022-12-26T00:02:36;59.78;;;24.50;;
10452;SDS011;5274;51.992;8.518;2022-12-26T00:05:02;58.88;;;25.10;;
10452;SDS011;5274;51.992;8.518;2022-12-26T00:07:27;54.65;;;23.52;;
10452;SDS011;5274;51.992;8.518;2022-12-26T00:09:53;62.10;;;25.20;;
10452;SDS011;5274;51.992;8.518;2022-12-26T00:12:18;51.47;;;23.85;;
10452;SDS011;5274;51.992;8.518;2022-12-26T00:14:44;51.35;;;22.23;;
10452;SDS011;5274;51.992;8.518;2022-12-26T00:17:09;57.15;;;24.70;;
10452;SDS011;5274;51.992;8.518;2022-12-26T00:19:35;63.17;;;24.00;;
10452;SDS011;5274;51.992;8.518;2022-12-26T00:22:00;57.40;;;23.95;;
10452;SDS011;5274;51.992;8.518;2022-12-26T00:24:26;58.72;;;23.77;;
10452;SDS011;5274;51.992;8.518;2022-12-26T00:26:51;45.13;;;21.52;;
10452;SDS011;5274;51.992;8.518;2022-12-26T00:29:17;43.88;;;21.42;;
10452;SDS011;5274;51.992;8.518;2022-12-26T00:31:42;47.13;;;22.70;;
10452;SDS011;5274;51.992;8.518;2022-12-26T00:34:08;47.80;;;21.90;;
10452;SDS011;5274;51.992;8.518;2022-12-26T00:36:34;59.88;;;23.17;;
10452;SDS011;5274;51.992;8.518;2022-12-26T00:39:00;51.95;;;21.70;;
10452;SDS011;5274;51.992;8.518;2022-12-26T00:41:26;46.67;;;20.98;;
10452;SDS011;5274;51.992;8.518;2022-12-26T00:43:52;47.55;;;21.13;;
10452;SDS011;5274;51.992;8.518;2022-12-26T00:46:18;61.38;;;22.42;;
10452;SDS011;5274;51.992;8.518;2022-12-26T00:48:44;40.58;;;20.65;;
10452;SDS011;5274;51.992;8.518;2022-12-26T00:51:10;50.10;;;21.73;;
10452;SDS011;5274;51.992;8.518;2022-12-26T00:53:35;50.50;;;20.58;;
10452;SDS011;5274;51.992;8.518;2022-12-26T00:56:01;45.35;;;21.17;;
10452;SDS011;5274;51.992;8.518;2022-12-26T00:58:27;46.42;;;21.38;;
10452;SDS011;5274;51.992;8.518;2022-12-26T01:00:53;48.83;;;21.25;;
10452;SDS011;5274;51.992;8.518;2022-12-26T01:03:19;42.35;;;20.10;;
10452;SDS011;5274;51.992;8.518;2022-12-26T01:05:46;46.97;;;20.42;;
10452;SDS011;5274;51.992;8.518;2022-12-26T01:08:13;39.38;;;19.50;;
10452;SDS011;5274;51.992;8.518;2022-12-26T01:10:40;41.42;;;19.88;;
10452;SDS011;5274;51.992;8.518;2022-12-26T01:13:06;38.88;;;18.15;;
10452;SDS011;5274;51.992;8.518;2022-12-26T01:15:32;42.00;;;20.13;;
10452;SDS011;5274;51.992;8.518;2022-12-26T01:17:58;54.40;;;19.88;;
10452;SDS011;5274;51.992;8.518;2022-12-26T01:20:25;34.38;;;17.85;;
10452;SDS011;5274;51.992;8.518;2022-12-26T01:22:51;36.30;;;18.27;;
10452;SDS011;5274;51.992;8.518;2022-12-26T01:25:16;45.47;;;20.75;;
10452;SDS011;5274;51.992;8.518;2022-12-26T01:27:42;39.30;;;18.45;;
10452;SDS011;5274;51.992;8.518;2022-12-26T01:30:08;46.13;;;20.00;;
10452;SDS011;5274;51.992;8.518;2022-12-26T01:32:33;39.20;;;19.85;;
10452;SDS011;5274;51.992;8.518;2022-12-26T01:34:59;45.45;;;20.13;;
10452;SDS011;5274;51.992;8.518;2022-12-26T01:37:24;39.10;;;19.20;;
10452;SDS011;5274;51.992;8.518;2022-12-26T01:39:50;50.38;;;20.02;;
10452;SDS011;5274;51.992;8.518;2022-12-26T01:42:17;45.85;;;20.50;;
10452;SDS011;5274;51.992;8.518;2022-12-26T01:44:55;44.80;;;20.23;;
10452;SDS011;5274;51.992;8.518;2022-12-26T01:47:28;41.65;;;19.90;;
10452;SDS011;5274;51.992;8.518;2022-12-26T01:50:03;51.00;;;22.08;;
10452;SDS011;5274;51.992;8.518;2022-12-26T01:55:02;63.30;;;23.75;;
10452;SDS011;5274;51.992;8.518;2022-12-26T01:57:33;42.03;;;22.05;;
10452;SDS011;5274;51.992;8.518;2022-12-26T02:00:03;52.28;;;21.33;;
10452;SDS011;5274;51.992;8.518;2022-12-26T02:02:30;52.60;;;22.67;;
10452;SDS011;5274;51.992;8.518;2022-12-26T02:05:15;56.53;;;23.27;;
10452;SDS011;5274;51.992;8.518;2022-12-26T02:08:00;54.53;;;23.92;;
10452;SDS011;5274;51.992;8.518;2022-12-26T02:10:34;56.90;;;23.23;;
10452;SDS011;5274;51.992;8.518;2022-12-26T02:13:05;44.03;;;22.35;;
10452;SDS011;5274;51.992;8.518;2022-12-26T02:15:31;68.80;;;23.58;;
10452;SDS011;5274;51.992;8.518;2022-12-26T02:17:57;45.22;;;22.13;;
10452;SDS011;5274;51.992;8.518;2022-12-26T02:20:23;54.25;;;23.58;;
10452;SDS011;5274;51.992;8.518;2022-12-26T02:22:59;51.03;;;21.42;;
10452;SDS011;5274;51.992;8.518;2022-12-26T02:26:05;38.92;;;20.13;;
10452;SDS011;5274;51.992;8.518;2022-12-26T02:28:45;46.30;;;21.65;;
10452;SDS011;5274;51.992;8.518;2022-12-26T02:31:51;56.20;;;22.92;;
10452;SDS011;5274;51.992;8.518;2022-12-26T02:40:39;53.58;;;22.10;;
10452;SDS011;5274;51.992;8.518;2022-12-26T02:43:42;42.90;;;20.65;;
10452;SDS011;5274;51.992;8.518;2022-12-26T02:46:48;41.90;;;20.20;;
10452;SDS011;5274;51.992;8.518;2022-12-26T02:52:29;45.55;;;20.30;;
10452;SDS011;5274;51.992;8.518;2022-12-26T02:55:30;42.72;;;19.95;;
10452;SDS011;5274;51.992;8.518;2022-12-26T02:58:20;40.22;;;20.02;;
10452;SDS011;5274;51.992;8.518;2022-12-26T03:01:13;40.20;;;20.13;;
10452;SDS011;5274;51.992;8.518;2022-12-26T03:04:08;42.15;;;20.60;;
10452;SDS011;5274;51.992;8.518;2022-12-26T03:06:57;43.17;;;20.42;;
10452;SDS011;5274;51.992;8.518;2022-12-26T03:09:44;41.97;;;19.95;;
10452;SDS011;5274;51.992;8.518;2022-12-26T03:15:56;46.40;;;20.13;;
10452;SDS011;5274;51.992;8.518;2022-12-26T03:18:49;43.10;;;19.98;;
10452;SDS011;5274;51.992;8.518;2022-12-26T03:21:19;48.15;;;22.33;;
10452;SDS011;5274;51.992;8.518;2022-12-26T03:23:50;50.80;;;22.58;;
10452;SDS011;5274;51.992;8.518;2022-12-26T03:26:18;55.67;;;23.15;;
10452;SDS011;5274;51.992;8.518;2022-12-26T03:29:06;48.50;;;21.67;;
10452;SDS011;5274;51.992;8.518;2022-12-26T03:31:58;47.17;;;22.67;;
10452;SDS011;5274;51.992;8.518;2022-12-26T03:34:25;48.65;;;22.13;;
10452;SDS011;5274;51.992;8.518;2022-12-26T03:37:16;50.15;;;22.80;;
10452;SDS011;5274;51.992;8.518;2022-12-26T03:52:06;50.28;;;22.20;;
10452;SDS011;5274;51.992;8.518;2022-12-26T03:57:57;57.72;;;22.92;;
10452;SDS011;5274;51.992;8.518;2022-12-26T04:00:58;51.78;;;22.42;;
10452;SDS011;5274;51.992;8.518;2022-12-26T04:03:45;58.15;;;22.83;;
10452;SDS011;5274;51.992;8.518;2022-12-26T04:07:32;50.67;;;21.77;;
10452;SDS011;5274;51.992;8.518;2022-12-26T04:10:08;47.75;;;21.08;;
10452;SDS011;5274;51.992;8.518;2022-12-26T04:13:05;50.63;;;20.70;;
10452;SDS011;5274;51.992;8.518;2022-12-26T04:16:01;49.47;;;21.02;;
10452;SDS011;5274;51.992;8.518;2022-12-26T04:18:57;52.83;;;20.85;;
10452;SDS011;5274;51.992;8.518;2022-12-26T04:25:06;33.33;;;18.00;;
10452;SDS011;5274;51.992;8.518;2022-12-26T04:28:06;38.90;;;19.08;;
10452;SDS011;5274;51.992;8.518;2022-12-26T04:31:08;42.65;;;19.63;;
10452;SDS011;5274;51.992;8.518;2022-12-26T04:34:00;44.00;;;18.67;;
10452;SDS011;5274;51.992;8.518;2022-12-26T04:36:49;40.85;;;18.55;;
10452;SDS011;5274;51.992;8.518;2022-12-26T04:39:38;43.97;;;19.20;;
10452;SDS011;5274;51.992;8.518;2022-12-26T04:42:27;41.83;;;19.30;;
10452;SDS011;5274;51.992;8.518;2022-12-26T04:45:13;40.35;;;19.17;;
10452;SDS011;5274;51.992;8.518;2022-12-26T04:47:39;38.50;;;18.73;;
10452;SDS011;5274;51.992;8.518;2022-12-26T04:50:25;37.47;;;19.40;;
10452;SDS011;5274;51.992;8.518;2022-12-26T04:52:50;41.97;;;18.75;;
10452;SDS011;5274;51.992;8.518;2022-12-26T04:55:22;43.75;;;19.77;;
10452;SDS011;5274;51.992;8.518;2022-12-26T04:57:52;43.25;;;19.33;;
10452;SDS011;5274;51.992;8.518;2022-12-26T05:00:18;37.90;;;17.88;;
10452;SDS011;5274;51.992;8.518;2022-12-26T05:02:44;42.30;;;18.20;;
10452;SDS011;5274;51.992;8.518;2022-12-26T05:05:28;46.47;;;18.98;;
10452;SDS011;5274;51.992;8.518;2022-12-26T05:08:41;45.67;;;19.60;;
10452;SDS011;5274;51.992;8.518;2022-12-26T05:11:27;37.05;;;18.30;;
10452;SDS011;5274;51.992;8.518;2022-12-26T05:13:54;52.45;;;18.98;;
10452;SDS011;5274;51.992;8.518;2022-12-26T05:16:21;41.70;;;19.58;;
10452;SDS011;5274;51.992;8.518;2022-12-26T05:19:08;45.08;;;18.50;;
10452;SDS011;5274;51.992;8.518;2022-12-26T05:21:54;40.90;;;18.65;;
10452;SDS011;5274;51.992;8.518;2022-12-26T05:24:38;37.15;;;16.88;;
10452;SDS011;5274;51.992;8.518;2022-12-26T05:27:24;34.90;;;17.42;;
10452;SDS011;5274;51.992;8.518;2022-12-26T05:30:16;37.30;;;18.17;;
10452;SDS011;5274;51.992;8.518;2022-12-26T05:32:41;38.85;;;18.38;;
10452;SDS011;5274;51.992;8.518;2022-12-26T05:35:25;38.33;;;18.52;;
10452;SDS011;5274;51.992;8.518;2022-12-26T05:37:51;39.65;;;17.40;;
10452;SDS011;5274;51.992;8.518;2022-12-26T05:40:16;35.13;;;18.02;;
10452;SDS011;5274;51.992;8.518;2022-12-26T05:42:42;32.13;;;17.00;;
10452;SDS011;5274;51.992;8.518;2022-12-26T05:45:07;34.28;;;17.52;;
10452;SDS011;5274;51.992;8.518;2022-12-26T05:47:33;32.55;;;15.40;;
10452;SDS011;5274;51.992;8.518;2022-12-26T05:49:59;37.88;;;17.02;;
10452;SDS011;5274;51.992;8.518;2022-12-26T05:52:24;31.75;;;15.88;;
10452;SDS011;5274;51.992;8.518;2022-12-26T05:54:50;34.47;;;16.40;;
10452;SDS011;5274;51.992;8.518;2022-12-26T05:57:15;29.67;;;15.70;;
10452;SDS011;5274;51.992;8.518;2022-12-26T05:59:41;32.75;;;15.70;;
10452;SDS011;5274;51.992;8.518;2022-12-26T06:02:06;29.45;;;15.00;;
10452;SDS011;5274;51.992;8.518;2022-12-26T06:04:32;31.33;;;15.90;;
10452;SDS011;5274;51.992;8.518;2022-12-26T06:07:00;33.55;;;15.88;;
10452;SDS011;5274;51.992;8.518;2022-12-26T06:09:26;30.38;;;15.13;;
10452;SDS011;5274;51.992;8.518;2022-12-26T06:11:51;29.33;;;15.70;;
10452;SDS011;5274;51.992;8.518;2022-12-26T06:14:17;27.52;;;14.48;;
10452;SDS011;5274;51.992;8.518;2022-12-26T06:16:42;28.85;;;13.30;;
10452;SDS011;5274;51.992;8.518;2022-12-26T06:19:08;26.67;;;14.23;;
10452;SDS011;5274;51.992;8.518;2022-12-26T06:21:33;30.63;;;13.98;;
10452;SDS011;5274;51.992;8.518;2022-12-26T06:23:59;28.27;;;14.93;;
10452;SDS011;5274;51.992;8.518;2022-12-26T06:26:24;26.63;;;14.02;;
10452;SDS011;5274;51.992;8.518;2022-12-26T06:28:50;24.17;;;13.30;;
10452;SDS011;5274;51.992;8.518;2022-12-26T06:31:17;27.13;;;12.90;;
10452;SDS011;5274;51.992;8.518;2022-12-26T06:33:45;27.25;;;14.57;;
10452;SDS011;5274;51.992;8.518;2022-12-26T06:36:12;30.77;;;14.57;;
10452;SDS011;5274;51.992;8.518;2022-12-26T06:38:41;28.63;;;14.43;;
10452;SDS011;5274;51.992;8.518;2022-12-26T06:41:08;27.20;;;14.30;;
10452;SDS011;5274;51.992;8.518;2022-12-26T06:43:35;25.65;;;14.02;;
10452;SDS011;5274;51.992;8.518;2022-12-26T06:46:02;27.65;;;15.02;;
10452;SDS011;5274;51.992;8.518;2022-12-26T06:48:29;27.60;;;13.95;;
10452;SDS011;5274;51.992;8.518;2022-12-26T06:50:55;29.25;;;15.30;;
10452;SDS011;5274;51.992;8.518;2022-12-26T06:53:21;30.65;;;15.90;;
10452;SDS011;5274;51.992;8.518;2022-12-26T06:55:48;30.15;;;15.02;;
10452;SDS011;5274;51.992;8.518;2022-12-26T06:58:15;29.88;;;15.80;;
10452;SDS011;5274;51.992;8.518;2022-12-26T07:00:41;31.30;;;16.17;;
10452;SDS011;5274;51.992;8.518;2022-12-26T07:03:07;32.03;;;15.40;;
10452;SDS011;5274;51.992;8.518;2022-12-26T07:05:36;24.95;;;13.88;;
10452;SDS011;5274;51.992;8.518;2022-12-26T07:08:03;31.55;;;17.08;;
10452;SDS011;5274;51.992;8.518;2022-12-26T07:10:29;29.65;;;14.48;;
10452;SDS011;5274;51.992;8.518;2022-12-26T07:12:58;26.95;;;15.55;;
10452;SDS011;5274;51.992;8.518;2022-12-26T07:15:23;26.08;;;16.08;;
10452;SDS011;5274;51.992;8.518;2022-12-26T07:17:49;29.80;;;15.07;;
10452;SDS011;5274;51.992;8.518;2022-12-26T07:20:16;33.40;;;16.58;;
10452;SDS011;5274;51.992;8.518;2022-12-26T07:22:41;32.45;;;16.13;;
10452;SDS011;5274;51.992;8.518;2022-12-26T07:25:07;27.38;;;15.45;;
10452;SDS011;5274;51.992;8.518;2022-12-26T07:27:33;24.98;;;14.32;;
10452;SDS011;5274;51.992;8.518;2022-12-26T07:29:58;23.13;;;13.48;;
10452;SDS011;5274;51.992;8.518;2022-12-26T07:32:24;23.35;;;14.30;;
10452;SDS011;5274;51.992;8.518;2022-12-26T07:34:50;23.27;;;13.63;;
10452;SDS011;5274;51.992;8.518;2022-12-26T07:37:16;25.80;;;15.13;;
10452;SDS011;5274;51.992;8.518;2022-12-26T07:39:41;25.38;;;14.35;;
10452;SDS011;5274;51.992;8.518;2022-12-26T07:42:07;23.55;;;13.90;;
10452;SDS011;5274;51.992;8.518;2022-12-26T07:44:32;25.33;;;14.10;;
10452;SDS011;5274;51.992;8.518;2022-12-26T07:46:58;26.48;;;14.48;;
10452;SDS011;5274;51.992;8.518;2022-12-26T07:49:24;22.92;;;13.63;;
10452;SDS011;5274;51.992;8.518;2022-12-26T07:51:50;23.25;;;12.90;;
10452;SDS011;5274;51.992;8.518;2022-12-26T07:54:16;26.98;;;13.73;;
10452;SDS011;5274;51.992;8.518;2022-12-26T07:56:42;28.35;;;14.73;;
10452;SDS011;5274;51.992;8.518;2022-12-26T07:59:11;31.65;;;14.55;;
10452;SDS011;5274;51.992;8.518;2022-12-26T08:01:39;27.45;;;14.65;;
10452;SDS011;5274;51.992;8.518;2022-12-26T08:04:05;28.52;;;15.90;;
10452;SDS011;5274;51.992;8.518;2022-12-26T08:06:30;29.73;;;15.98;;
10452;SDS011;5274;51.992;8.518;2022-12-26T08:08:56;32.92;;;17.35;;
10452;SDS011;5274;51.992;8.518;2022-12-26T08:11:22;35.20;;;17.90;;
10452;SDS011;5274;51.992;8.518;2022-12-26T08:13:48;34.85;;;17.42;;
10452;SDS011;5274;51.992;8.518;2022-12-26T08:16:15;28.40;;;16.92;;
10452;SDS011;5274;51.992;8.518;2022-12-26T08:18:40;31.73;;;17.35;;
10452;SDS011;5274;51.992;8.518;2022-12-26T08:21:06;34.60;;;17.23;;
10452;SDS011;5274;51.992;8.518;2022-12-26T08:23:32;34.45;;;18.27;;
10452;SDS011;5274;51.992;8.518;2022-12-26T08:26:00;34.50;;;17.60;;
10452;SDS011;5274;51.992;8.518;2022-12-26T08:28:35;30.88;;;17.63;;
10452;SDS011;5274;51.992;8.518;2022-12-26T08:31:07;33.30;;;17.27;;
10452;SDS011;5274;51.992;8.518;2022-12-26T08:33:34;33.08;;;16.50;;
10452;SDS011;5274;51.992;8.518;2022-12-26T08:36:03;34.90;;;17.77;;
10452;SDS011;5274;51.992;8.518;2022-12-26T08:38:30;35.35;;;17.95;;
10452;SDS011;5274;51.992;8.518;2022-12-26T08:40:55;26.88;;;15.82;;
10452;SDS011;5274;51.992;8.518;2022-12-26T08:43:22;33.60;;;16.85;;
10452;SDS011;5274;51.992;8.518;2022-12-26T08:45:55;34.90;;;16.83;;
10452;SDS011;5274;51.992;8.518;2022-12-26T08:48:22;25.70;;;15.65;;
10452;SDS011;5274;51.992;8.518;2022-12-26T08:50:47;28.90;;;15.88;;
10452;SDS011;5274;51.992;8.518;2022-12-26T08:53:18;30.92;;;14.95;;
10452;SDS011;5274;51.992;8.518;2022-12-26T08:55:44;29.90;;;14.93;;
10452;SDS011;5274;51.992;8.518;2022-12-26T08:58:09;24.73;;;13.98;;
10452;SDS011;5274;51.992;8.518;2022-12-26T09:00:34;23.38;;;13.82;;
10452;SDS011;5274;51.992;8.518;2022-12-26T09:03:00;22.17;;;13.45;;
10452;SDS011;5274;51.992;8.518;2022-12-26T09:05:25;25.35;;;14.38;;
10452;SDS011;5274;51.992;8.518;2022-12-26T09:07:51;23.65;;;13.85;;
10452;SDS011;5274;51.992;8.518;2022-12-26T09:10:16;24.08;;;12.38;;
10452;SDS011;5274;51.992;8.518;2022-12-26T09:12:42;24.15;;;13.43;;
10452;SDS011;5274;51.992;8.518;2022-12-26T09:15:07;22.90;;;12.32;;
10452;SDS011;5274;51.992;8.518;2022-12-26T09:17:33;21.65;;;12.38;;
10452;SDS011;5274;51.992;8.518;2022-12-26T09:19:59;19.95;;;12.60;;
10452;SDS011;5274;51.992;8.518;2022-12-26T09:22:24;19.95;;;11.48;;
10452;SDS011;5274;51.992;8.518;2022-12-26T09:25:08;17.27;;;10.25;;
10452;SDS011;5274;51.992;8.518;2022-12-26T09:27:34;15.80;;;10.38;;
10452;SDS011;5274;51.992;8.518;2022-12-26T09:29:59;18.90;;;10.85;;
10452;SDS011;5274;51.992;8.518;2022-12-26T09:32:25;17.38;;;9.57;;
10452;SDS011;5274;51.992;8.518;2022-12-26T09:34:50;16.77;;;9.40;;
10452;SDS011;5274;51.992;8.518;2022-12-26T09:37:16;15.00;;;9.27;;
10452;SDS011;5274;51.992;8.518;2022-12-26T09:39:41;17.10;;;10.40;;
10452;SDS011;5274;51.992;8.518;2022-12-26T09:42:11;19.80;;;10.20;;
10452;SDS011;5274;51.992;8.518;2022-12-26T09:44:56;12.57;;;8.65;;
10452;SDS011;5274;51.992;8.518;2022-12-26T10:01:15;12.85;;;7.35;;
10452;SDS011;5274;51.992;8.518;2022-12-26T10:03:50;9.65;;;7.28;;
10452;SDS011;5274;51.992;8.518;2022-12-26T10:06:21;12.43;;;7.97;;
10452;SDS011;5274;51.992;8.518;2022-12-26T10:14:55;7.90;;;6.28;;
10452;SDS011;5274;51.992;8.518;2022-12-26T10:17:09;9.15;;;6.47;;
10452;SDS011;5274;51.992;8.518;2022-12-26T10:25:23;5.75;;;4.50;;
10452;SDS011;5274;51.992;8.518;2022-12-26T10:27:56;7.07;;;4.10;;
10452;SDS011;5274;51.992;8.518;2022-12-26T10:30:24;9.00;;;3.58;;
10452;SDS011;5274;51.992;8.518;2022-12-26T10:32:58;6.05;;;3.72;;
10452;SDS011;5274;51.992;8.518;2022-12-26T10:35:30;2.92;;;2.70;;
10452;SDS011;5274;51.992;8.518;2022-12-26T10:38:35;8.13;;;3.63;;
10452;SDS011;5274;51.992;8.518;2022-12-26T10:41:08;3.88;;;3.25;;
10452;SDS011;5274;51.992;8.518;2022-12-26T10:43:38;5.47;;;3.67;;
10452;SDS011;5274;51.992;8.518;2022-12-26T10:46:14;5.05;;;3.40;;
10452;SDS011;5274;51.992;8.518;2022-12-26T10:48:57;5.50;;;3.40;;
10452;SDS011;5274;51.992;8.518;2022-12-26T10:51:23;3.90;;;3.03;;
10452;SDS011;5274;51.992;8.518;2022-12-26T10:53:50;4.05;;;3.50;;
10452;SDS011;5274;51.992;8.518;2022-12-26T10:56:17;5.43;;;3.28;;
10452;SDS011;5274;51.992;8.518;2022-12-26T10:58:45;3.95;;;3.40;;
10452;SDS011;5274;51.992;8.518;2022-12-26T11:01:32;7.43;;;4.18;;
10452;SDS011;5274;51.992;8.518;2022-12-26T11:04:02;7.82;;;4.13;;
10452;SDS011;5274;51.992;8.518;2022-12-26T11:06:31;4.85;;;3.58;;
10452;SDS011;5274;51.992;8.518;2022-12-26T11:09:03;5.55;;;3.55;;
10452;SDS011;5274;51.992;8.518;2022-12-26T11:11:34;4.70;;;3.70;;
10452;SDS011;5274;51.992;8.518;2022-12-26T11:14:55;7.63;;;3.90;;
10452;SDS011;5274;51.992;8.518;2022-12-26T11:17:03;5.47;;;3.30;;
10452;SDS011;5274;51.992;8.518;2022-12-26T11:19:36;3.63;;;3.33;;
10452;SDS011;5274;51.992;8.518;2022-12-26T11:25:00;9.82;;;3.35;;
10452;SDS011;5274;51.992;8.518;2022-12-26T11:27:26;6.65;;;3.47;;
10452;SDS011;5274;51.992;8.518;2022-12-26T11:30:05;5.15;;;3.45;;
10452;SDS011;5274;51.992;8.518;2022-12-26T11:33:12;3.30;;;2.85;;
10452;SDS011;5274;51.992;8.518;2022-12-26T11:36:06;3.97;;;3.17;;
10452;SDS011;5274;51.992;8.518;2022-12-26T11:41:39;3.25;;;2.95;;
10452;SDS011;5274;51.992;8.518;2022-12-26T11:49:20;7.10;;;3.60;;
10452;SDS011;5274;51.992;8.518;2022-12-26T11:51:50;4.53;;;3.05;;
10452;SDS011;5274;51.992;8.518;2022-12-26T11:59:35;3.80;;;2.63;;
10452;SDS011;5274;51.992;8.518;2022-12-26T12:05:07;7.45;;;3.25;;
10452;SDS011;5274;51.992;8.518;2022-12-26T12:07:54;4.22;;;2.47;;
10452;SDS011;5274;51.992;8.518;2022-12-26T12:10:48;5.50;;;2.63;;
10452;SDS011;5274;51.992;8.518;2022-12-26T12:19:13;3.50;;;2.90;;
10452;SDS011;5274;51.992;8.518;2022-12-26T12:27:42;6.53;;;3.95;;
10452;SDS011;5274;51.992;8.518;2022-12-26T12:33:44;6.38;;;3.75;;
10452;SDS011;5274;51.992;8.518;2022-12-26T12:38:49;3.90;;;2.95;;
10452;SDS011;5274;51.992;8.518;2022-12-26T12:41:43;5.45;;;3.90;;
10452;SDS011;5274;51.992;8.518;2022-12-26T12:44:20;7.80;;;4.63;;
10452;SDS011;5274;51.992;8.518;2022-12-26T13:01:26;7.03;;;5.03;;
10452;SDS011;5274;51.992;8.518;2022-12-26T13:06:50;7.47;;;3.58;;
10452;SDS011;5274;51.992;8.518;2022-12-26T13:09:24;4.55;;;3.55;;
10452;SDS011;5274;51.992;8.518;2022-12-26T13:12:03;5.40;;;3.47;;
10452;SDS011;5274;51.992;8.518;2022-12-26T13:14:31;5.15;;;3.63;;
10452;SDS011;5274;51.992;8.518;2022-12-26T13:17:10;5.28;;;3.70;;
10452;SDS011;5274;51.992;8.518;2022-12-26T13:19:45;4.97;;;4.28;;
10452;SDS011;5274;51.992;8.518;2022-12-26T13:22:41;5.68;;;4.57;;
10452;SDS011;5274;51.992;8.518;2022-12-26T13:25:33;7.82;;;5.53;;
10452;SDS011;5274;51.992;8.518;2022-12-26T13:28:10;11.73;;;6.47;;
10452;SDS011;5274;51.992;8.518;2022-12-26T13:30:39;48.88;;;6.55;;
10452;SDS011;5274;51.992;8.518;2022-12-26T13:33:09;0.20;;;0.20;;
10452;SDS011;5274;51.992;8.518;2022-12-26T13:35:51;5.63;;;3.70;;
10452;SDS011;5274;51.992;8.518;2022-12-26T13:38:23;8.27;;;4.20;;
10452;SDS011;5274;51.992;8.518;2022-12-26T13:40:55;11.65;;;4.78;;
10452;SDS011;5274;51.992;8.518;2022-12-26T13:43:59;6.45;;;3.75;;
10452;SDS011;5274;51.992;8.518;2022-12-26T13:49:24;5.18;;;3.30;;
10452;SDS011;5274;51.992;8.518;2022-12-26T13:51:51;9.70;;;3.80;;
10452;SDS011;5274;51.992;8.518;2022-12-26T13:54:18;9.45;;;3.05;;
10452;SDS011;5274;51.992;8.518;2022-12-26T13:59:23;9.65;;;2.70;;
10452;SDS011;5274;51.992;8.518;2022-12-26T14:01:57;5.95;;;2.25;;
10452;SDS011;5274;51.992;8.518;2022-12-26T14:04:48;8.13;;;2.58;;
10452;SDS011;5274;51.992;8.518;2022-12-26T14:07:32;7.32;;;2.08;;
10452;SDS011;5274;51.992;8.518;2022-12-26T14:10:27;6.10;;;2.03;;
10452;SDS011;5274;51.992;8.518;2022-12-26T14:13:26;6.95;;;1.67;;
10452;SDS011;5274;51.992;8.518;2022-12-26T14:22:24;4.47;;;1.80;;
10452;SDS011;5274;51.992;8.518;2022-12-26T14:30:18;5.43;;;1.70;;
10452;SDS011;5274;51.992;8.518;2022-12-26T14:35:55;11.50;;;2.07;;
10452;SDS011;5274;51.992;8.518;2022-12-26T14:41:02;6.67;;;1.70;;
10452;SDS011;5274;51.992;8.518;2022-12-26T14:43:35;8.83;;;1.70;;
10452;SDS011;5274;51.992;8.518;2022-12-26T14:46:05;4.40;;;1.50;;
10452;SDS011;5274;51.992;8.518;2022-12-26T14:48:54;9.00;;;2.40;;
10452;SDS011;5274;51.992;8.518;2022-12-26T14:51:26;8.63;;;2.00;;
10452;SDS011;5274;51.992;8.518;2022-12-26T14:56:46;7.70;;;2.67;;
10452;SDS011;5274;51.992;8.518;2022-12-26T15:04:36;2.63;;;1.83;;
10452;SDS011;5274;51.992;8.518;2022-12-26T15:13:04;10.70;;;2.30;;
10452;SDS011;5274;51.992;8.518;2022-12-26T15:16:00;7.30;;;2.23;;
10452;SDS011;5274;51.992;8.518;2022-12-26T15:18:49;3.67;;;2.00;;
10452;SDS011;5274;51.992;8.518;2022-12-26T15:21:41;9.10;;;2.10;;
10452;SDS011;5274;51.992;8.518;2022-12-26T15:27:32;9.57;;;2.67;;
10452;SDS011;5274;51.992;8.518;2022-12-26T15:32:58;6.13;;;2.03;;
10452;SDS011;5274;51.992;8.518;2022-12-26T15:35:48;6.13;;;1.80;;
10452;SDS011;5274;51.992;8.518;2022-12-26T15:38:27;5.10;;;2.50;;
10452;SDS011;5274;51.992;8.518;2022-12-26T15:43:52;9.07;;;2.40;;
10452;SDS011;5274;51.992;8.518;2022-12-26T15:46:50;6.10;;;2.20;;
10452;SDS011;5274;51.992;8.518;2022-12-26T15:52:35;10.53;;;2.67;;
10452;SDS011;5274;51.992;8.518;2022-12-26T16:01:00;11.57;;;4.33;;
10452;SDS011;5274;51.992;8.518;2022-12-26T16:06:31;9.53;;;3.33;;
10452;SDS011;5274;51.992;8.518;2022-12-26T16:17:35;5.83;;;2.27;;
10452;SDS011;5274;51.992;8.518;2022-12-26T16:20:29;11.10;;;2.73;;
10452;SDS011;5274;51.992;8.518;2022-12-26T16:23:15;7.03;;;3.27;;
10452;SDS011;5274;51.992;8.518;2022-12-26T16:25:49;10.40;;;3.33;;
10452;SDS011;5274;51.992;8.518;2022-12-26T16:28:22;5.83;;;3.20;;
10452;SDS011;5274;51.992;8.518;2022-12-26T16:30:50;6.77;;;2.97;;
10452;SDS011;5274;51.992;8.518;2022-12-26T16:33:16;5.90;;;2.87;;
10452;SDS011;5274;51.992;8.518;2022-12-26T16:35:42;8.10;;;2.90;;
10452;SDS011;5274;51.992;8.518;2022-12-26T16:38:12;11.00;;;3.27;;
10452;SDS011;5274;51.992;8.518;2022-12-26T16:40:44;5.43;;;2.83;;
10452;SDS011;5274;51.992;8.518;2022-12-26T16:45:53;8.60;;;2.90;;
10452;SDS011;5274;51.992;8.518;2022-12-26T16:48:23;7.17;;;2.70;;
10452;SDS011;5274;51.992;8.518;2022-12-26T16:50:51;7.53;;;2.93;;
10452;SDS011;5274;51.992;8.518;2022-12-26T16:58:53;12.60;;;3.20;;
10452;SDS011;5274;51.992;8.518;2022-12-26T17:01:22;6.63;;;2.53;;
10452;SDS011;5274;51.992;8.518;2022-12-26T17:06:27;9.90;;;2.90;;
10452;SDS011;5274;51.992;8.518;2022-12-26T17:08:57;10.20;;;3.17;;
10452;SDS011;5274;51.992;8.518;2022-12-26T17:11:30;11.17;;;2.40;;
10452;SDS011;5274;51.992;8.518;2022-12-26T17:13:59;4.50;;;2.27;;
10452;SDS011;5274;51.992;8.518;2022-12-26T17:16:26;7.83;;;2.67;;
10452;SDS011;5274;51.992;8.518;2022-12-26T17:21:41;6.60;;;2.33;;
10452;SDS011;5274;51.992;8.518;2022-12-26T17:24:27;4.63;;;2.37;;
10452;SDS011;5274;51.992;8.518;2022-12-26T17:27:06;6.63;;;2.77;;
10452;SDS011;5274;51.992;8.518;2022-12-26T17:32:15;8.10;;;3.40;;
10452;SDS011;5274;51.992;8.518;2022-12-26T17:34:49;14.03;;;5.43;;
10452;SDS011;5274;51.992;8.518;2022-12-26T17:37:22;8.80;;;2.83;;
10452;SDS011;5274;51.992;8.518;2022-12-26T17:39:49;6.47;;;2.90;;
10452;SDS011;5274;51.992;8.518;2022-12-26T17:42:16;8.93;;;2.93;;
10452;SDS011;5274;51.992;8.518;2022-12-26T17:44:43;4.73;;;2.63;;
10452;SDS011;5274;51.992;8.518;2022-12-26T17:49:43;6.67;;;2.93;;
10452;SDS011;5274;51.992;8.518;2022-12-26T17:52:10;12.63;;;3.23;;
10452;SDS011;5274;51.992;8.518;2022-12-26T17:54:36;9.93;;;3.23;;
10452;SDS011;5274;51.992;8.518;2022-12-26T17:57:02;6.87;;;2.27;;
10452;SDS011;5274;51.992;8.518;2022-12-26T17:59:28;7.27;;;2.40;;
10452;SDS011;5274;51.992;8.518;2022-12-26T18:01:53;9.83;;;3.57;;
10452;SDS011;5274;51.992;8.518;2022-12-26T18:04:19;13.93;;;3.37;;
10452;SDS011;5274;51.992;8.518;2022-12-26T18:06:44;16.23;;;3.70;;
10452;SDS011;5274;51.992;8.518;2022-12-26T18:09:25;9.97;;;2.90;;
10452;SDS011;5274;51.992;8.518;2022-12-26T18:11:52;12.77;;;3.00;;
10452;SDS011;5274;51.992;8.518;2022-12-26T18:14:18;12.80;;;2.77;;
10452;SDS011;5274;51.992;8.518;2022-12-26T18:16:44;8.57;;;2.63;;
10452;SDS011;5274;51.992;8.518;2022-12-26T18:19:12;11.30;;;3.03;;
10452;SDS011;5274;51.992;8.518;2022-12-26T18:21:40;15.17;;;2.80;;
10452;SDS011;5274;51.992;8.518;2022-12-26T18:24:06;9.17;;;2.37;;
10452;SDS011;5274;51.992;8.518;2022-12-26T18:26:32;8.17;;;3.37;;
10452;SDS011;5274;51.992;8.518;2022-12-26T18:28:58;11.10;;;3.30;;
10452;SDS011;5274;51.992;8.518;2022-12-26T18:31:24;18.30;;;3.27;;
10452;SDS011;5274;51.992;8.518;2022-12-26T18:33:53;8.70;;;3.63;;
10452;SDS011;5274;51.992;8.518;2022-12-26T18:36:19;7.97;;;3.27;;